Balti International Airport


Codes: LUBL/BZY
Name: Balti International Airport
City: Strymba
Country: Moldova
Elevation: 758 ft.
Wikipedia:

Photos at Balti International Airport


   Photos courtesy of SpottingLog. You can add your own sightings and photos by signing up for a free trial today.



No photos found.

Weather at Balti International Airport


Time (UTC)DescriptionTempratureWindCloud coverageVisibilityPressureHumidity
21-Jun-2024 12:00Broken Clouds24°C4 mph, S68%10000m1019hPa46%
21-Jun-2024 15:00Few Clouds25°C2 mph, S24%10000m1017hPa44%
21-Jun-2024 18:00Clear Sky22°C4 mph, SE3%10000m1015hPa59%
21-Jun-2024 21:00Clear Sky19°C4 mph, SE0%10000m1016hPa64%
22-Jun-2024 00:00Clear Sky18°C4 mph, SE0%10000m1015hPa71%
22-Jun-2024 03:00Clear Sky17°C7 mph, SE0%10000m1014hPa75%
22-Jun-2024 06:00Clear Sky23°C9 mph, SE0%10000m1013hPa55%
22-Jun-2024 09:00Few Clouds28°C11 mph, S18%10000m1012hPa47%
22-Jun-2024 12:00Clear Sky30°C16 mph, S9%10000m1009hPa43%
22-Jun-2024 15:00Clear Sky31°C9 mph, S0%10000m1008hPa42%
22-Jun-2024 18:00Light Rain20°C18 mph, N42%6133m1013hPa88%
22-Jun-2024 21:00Light Rain20°C7 mph, W100%10000m1011hPa91%
23-Jun-2024 00:00Overcast Clouds19°C2 mph, NW100%10000m1011hPa92%
23-Jun-2024 03:00Overcast Clouds19°C7 mph, E100%10000m1010hPa91%
23-Jun-2024 06:00Broken Clouds23°C7 mph, S83%10000m1011hPa72%
23-Jun-2024 09:00Broken Clouds26°C7 mph, W59%10000m1011hPa61%
23-Jun-2024 12:00Broken Clouds27°C7 mph, NW75%10000m1011hPa57%
23-Jun-2024 15:00Scattered Clouds27°C13 mph, N42%10000m1011hPa60%
23-Jun-2024 18:00Few Clouds23°C7 mph, NW24%10000m1012hPa76%
23-Jun-2024 21:00Scattered Clouds20°C7 mph, N25%10000m1013hPa74%
24-Jun-2024 00:00Light Rain19°C7 mph, NE59%10000m1013hPa84%
24-Jun-2024 03:00Light Rain19°C4 mph, N100%10000m1013hPa81%
24-Jun-2024 06:00Overcast Clouds22°C7 mph, N100%10000m1014hPa63%
24-Jun-2024 09:00Overcast Clouds23°C7 mph, NW100%10000m1014hPa57%
24-Jun-2024 12:00Light Rain23°C9 mph, N96%10000m1014hPa57%
24-Jun-2024 15:00Overcast Clouds24°C9 mph, N99%10000m1014hPa55%
24-Jun-2024 18:00Overcast Clouds20°C9 mph, NW98%10000m1014hPa69%
24-Jun-2024 21:00Overcast Clouds20°C7 mph, NW100%10000m1015hPa70%
25-Jun-2024 00:00Overcast Clouds18°C7 mph, N99%10000m1015hPa72%
25-Jun-2024 03:00Clear Sky15°C7 mph, N4%10000m1015hPa87%
25-Jun-2024 06:00Clear Sky20°C9 mph, NW3%10000m1015hPa65%
25-Jun-2024 09:00Few Clouds23°C11 mph, NW20%10000m1015hPa52%
25-Jun-2024 12:00Broken Clouds24°C11 mph, NW53%10000m1014hPa48%
25-Jun-2024 15:00Broken Clouds23°C9 mph, N79%10000m1013hPa56%
25-Jun-2024 18:00Scattered Clouds20°C9 mph, N46%10000m1014hPa73%
25-Jun-2024 21:00Clear Sky16°C7 mph, NE2%10000m1014hPa84%
26-Jun-2024 00:00Clear Sky15°C4 mph, NE1%10000m1014hPa86%
26-Jun-2024 03:00Clear Sky15°C4 mph, E0%10000m1014hPa88%
26-Jun-2024 06:00Clear Sky20°C7 mph, E2%10000m1014hPa64%
26-Jun-2024 09:00Scattered Clouds24°C7 mph, SE26%10000m1012hPa48%